Time;durP1;ratioP1;P1;durP2;ratioP2;P2;SDS_P1;SDS_P2;PMS_P1;PMS_P2;Temp;Humidity;BMP_temperature;BMP_pressure;BME280_temperature;BME280_humidity;BME280_pressure;Samples;Min_cycle;Max_cycle;Signal;HPM_P1;HPM_P2
2023/08/31 00:00:51;;;;;;;1177.70;510.93;;;11.30;99.90;;;;;;5083235;28;20041;-86
2023/08/31 00:03:17;;;;;;;1209.90;543.93;;;11.40;99.90;;;;;;5071115;28;20043;-87
2023/08/31 00:05:44;;;;;;;1174.43;508.70;;;11.30;99.90;;;;;;5071465;28;20374;-87
2023/08/31 00:08:11;;;;;;;1170.33;499.50;;;11.20;99.90;;;;;;5073368;28;20108;-87
2023/08/31 00:10:37;;;;;;;1208.23;544.50;;;12.10;99.90;;;;;;5083314;28;20051;-87
2023/08/31 00:13:04;;;;;;;1205.50;533.57;;;11.20;99.90;;;;;;5082833;28;20074;-87
2023/08/31 00:15:32;;;;;;;1178.93;504.37;;;11.20;99.90;;;;;;5093034;28;20059;-86
2023/08/31 00:17:59;;;;;;;1209.93;537.93;;;11.10;99.90;;;;;;5074774;28;20480;-88
2023/08/31 00:20:25;;;;;;;1209.63;540.10;;;11.20;99.90;;;;;;5090923;28;20042;-87
2023/08/31 00:22:51;;;;;;;1164.73;492.30;;;11.10;99.90;;;;;;5071514;28;20053;-89
2023/08/31 00:25:17;;;;;;;1171.03;502.13;;;11.60;99.90;;;;;;5071309;28;20051;-88
2023/08/31 00:27:43;;;;;;;1169.83;495.33;;;11.60;99.90;;;;;;5081313;28;20036;-89
2023/08/31 00:30:14;;;;;;;1202.63;536.23;;;11.20;99.90;;;;;;5091463;28;20051;-88
2023/08/31 00:36:26;;;;;;;1208.33;536.00;;;11.10;99.90;;;;;;5096706;28;20062;-87
2023/08/31 00:38:51;;;;;;;1174.73;496.77;;;11.10;99.90;;;;;;5094421;28;20089;-87
2023/08/31 00:41:19;;;;;;;1176.43;496.10;;;11.10;99.90;;;;;;5094909;28;20463;-88
2023/08/31 00:43:45;;;;;;;1206.10;540.53;;;11.10;99.90;;;;;;5104089;28;20051;-87
2023/08/31 00:46:14;;;;;;;1206.37;541.13;;;11.00;99.90;;;;;;5081481;28;20035;-88
2023/08/31 00:48:42;;;;;;;1175.67;494.47;;;11.00;99.90;;;;;;5097878;28;20055;-87
2023/08/31 00:51:10;;;;;;;1199.37;533.33;;;11.00;99.90;;;;;;5084091;28;20039;-88
2023/08/31 00:53:36;;;;;;;1179.77;505.20;;;11.00;99.90;;;;;;5086804;28;20047;-87
2023/08/31 00:56:03;;;;;;;1174.10;489.20;;;11.00;99.90;;;;;;5084268;28;20039;-87
2023/08/31 00:58:30;;;;;;;1199.83;528.30;;;11.00;99.90;;;;;;5116185;28;20062;-86
2023/08/31 01:01:14;;;;;;;1171.07;486.93;;;10.90;99.90;;;;;;5097310;28;20491;-87
2023/08/31 01:03:55;;;;;;;1171.23;493.70;;;10.90;99.90;;;;;;5095616;28;20039;-86
2023/08/31 01:06:36;;;;;;;1165.20;488.07;;;10.90;99.90;;;;;;5079091;28;20059;-87
2023/08/31 01:09:15;;;;;;;1188.53;531.00;;;10.90;99.90;;;;;;5061154;28;20040;-86
2023/08/31 01:11:52;;;;;;;1199.43;540.57;;;11.20;99.90;;;;;;5110674;28;20070;-88
2023/08/31 01:14:23;;;;;;;1155.70;484.47;;;10.80;99.90;;;;;;5074618;28;20040;-87
2023/08/31 01:16:53;;;;;;;1186.57;531.97;;;10.90;99.90;;;;;;5077263;28;20043;-86
2023/08/31 01:19:34;;;;;;;1185.30;536.03;;;10.80;99.90;;;;;;5095622;28;20040;-87
2023/08/31 01:22:03;;;;;;;1180.13;534.43;;;10.80;99.90;;;;;;5073426;28;20063;-87
2023/08/31 01:24:31;;;;;;;1214.57;536.97;;;11.40;99.90;;;;;;5114945;28;20094;-87
2023/08/31 01:26:59;;;;;;;1161.57;497.00;;;10.70;99.90;;;;;;5096437;28;20051;-87
2023/08/31 01:29:25;;;;;;;1150.30;489.07;;;11.30;99.90;;;;;;5097187;28;20044;-86
2023/08/31 01:31:54;;;;;;;1149.17;489.27;;;10.70;99.90;;;;;;5095951;28;20118;-87
2023/08/31 01:34:19;;;;;;;1132.30;472.40;;;10.90;99.90;;;;;;5115103;28;20051;-87
2023/08/31 01:36:52;;;;;;;1164.93;531.37;;;10.70;99.90;;;;;;5081679;28;20052;-86
2023/08/31 01:39:29;;;;;;;1136.10;480.27;;;10.70;99.90;;;;;;5076797;28;20060;-87
2023/08/31 01:42:00;;;;;;;1161.33;529.13;;;11.10;99.90;;;;;;5061389;28;20045;-87
2023/08/31 01:44:28;;;;;;;1130.50;482.57;;;10.80;99.90;;;;;;5088194;28;20549;-87
2023/08/31 01:47:06;;;;;;;1155.33;526.67;;;10.60;99.90;;;;;;5112019;28;20395;-87
2023/08/31 01:49:41;;;;;;;1134.45;477.02;;;10.60;99.90;;;;;;5097568;28;20062;-87
2023/08/31 01:52:07;;;;;;;1135.45;477.77;;;10.60;99.90;;;;;;5096811;28;20075;-87
2023/08/31 01:54:33;;;;;;;1144.47;527.43;;;10.60;99.90;;;;;;5096218;28;20089;-87
2023/08/31 01:56:59;;;;;;;1137.03;522.53;;;10.50;99.90;;;;;;5095714;28;20043;-87
2023/08/31 01:59:26;;;;;;;1132.40;523.47;;;10.50;99.90;;;;;;5098366;28;20043;-87
2023/08/31 02:01:55;;;;;;;1136.30;522.47;;;10.50;99.90;;;;;;5060054;28;20043;-87
2023/08/31 02:04:22;;;;;;;1151.40;474.63;;;10.50;99.90;;;;;;5076942;28;20035;-86
2023/08/31 02:06:48;;;;;;;1190.80;530.17;;;10.40;99.90;;;;;;5078631;28;20044;-86
2023/08/31 02:09:14;;;;;;;1174.00;533.57;;;10.40;99.90;;;;;;5082553;28;20043;-87
2023/08/31 02:11:40;;;;;;;1134.57;476.63;;;10.40;99.90;;;;;;5076763;28;20054;-87
2023/08/31 02:14:07;;;;;;;1123.60;477.77;;;10.30;99.90;;;;;;5097142;28;20450;-88
2023/08/31 02:16:42;;;;;;;1127.40;474.87;;;10.30;99.90;;;;;;5073588;28;20516;-87
2023/08/31 02:19:08;;;;;;;1137.20;479.20;;;10.70;99.90;;;;;;5084950;28;20051;-87
2023/08/31 02:21:34;;;;;;;1122.53;472.43;;;10.80;99.90;;;;;;5060760;28;20040;-86
2023/08/31 02:24:00;;;;;;;1139.90;522.07;;;10.20;99.90;;;;;;5079228;28;20039;-87
2023/08/31 02:26:26;;;;;;;1145.10;521.00;;;10.20;99.90;;;;;;5095297;28;20130;-87
2023/08/31 02:28:51;;;;;;;1120.00;467.43;;;10.50;99.90;;;;;;5094998;28;20093;-87
2023/08/31 02:31:18;;;;;;;1144.00;525.17;;;10.30;99.90;;;;;;5114352;28;20032;-87
2023/08/31 02:33:46;;;;;;;1122.83;464.17;;;10.20;99.90;;;;;;5096083;28;20127;-87
2023/08/31 02:36:12;;;;;;;1141.20;524.00;;;10.00;99.90;;;;;;5096148;28;20113;-87
2023/08/31 02:38:40;;;;;;;1142.40;527.07;;;10.20;99.90;;;;;;5113314;28;20083;-88
2023/08/31 02:41:08;;;;;;;1115.43;459.20;;;10.40;99.90;;;;;;5086063;28;20418;-87
2023/08/31 02:43:33;;;;;;;1119.87;463.67;;;10.10;99.90;;;;;;5059368;28;20048;-87
2023/08/31 02:46:01;;;;;;;1123.40;464.00;;;10.10;99.90;;;;;;5108463;28;20445;-87
2023/08/31 02:48:28;;;;;;;1150.00;527.53;;;10.20;99.90;;;;;;5088637;28;20509;-87
2023/08/31 02:50:57;;;;;;;1125.17;471.33;;;10.10;99.90;;;;;;5114030;28;20046;-87
2023/08/31 02:53:22;;;;;;;1160.67;521.00;;;10.10;99.90;;;;;;5094861;28;20438;-87
2023/08/31 02:55:50;;;;;;;1150.13;525.67;;;10.00;99.90;;;;;;5071666;28;20040;-87
2023/08/31 02:58:16;;;;;;;1115.67;459.73;;;10.10;99.90;;;;;;5089798;28;20101;-88
2023/08/31 03:00:45;;;;;;;1132.23;467.20;;;10.20;99.90;;;;;;5095038;28;20083;-86
2023/08/31 03:03:11;;;;;;;1150.77;525.20;;;10.10;99.90;;;;;;5095194;28;20035;-88
2023/08/31 03:05:37;;;;;;;1141.43;520.77;;;10.10;99.90;;;;;;5078574;28;20054;-87
2023/08/31 03:08:03;;;;;;;1147.37;528.60;;;10.10;99.90;;;;;;5091891;28;20054;-86
2023/08/31 03:10:28;;;;;;;1146.40;526.37;;;10.10;99.90;;;;;;5077863;28;20086;-86
2023/08/31 03:12:54;;;;;;;1118.93;467.70;;;10.20;99.90;;;;;;5113236;28;20483;-88
2023/08/31 03:15:20;;;;;;;1135.77;519.17;;;10.10;99.90;;;;;;5113325;28;20513;-87
2023/08/31 03:17:46;;;;;;;1109.83;456.37;;;10.10;99.90;;;;;;5077054;28;20082;-88
2023/08/31 03:20:12;;;;;;;1133.20;522.10;;;10.40;99.90;;;;;;5076674;28;20044;-86
2023/08/31 03:22:38;;;;;;;1134.77;518.67;;;10.40;99.90;;;;;;5094778;28;22199;-87
2023/08/31 03:25:03;;;;;;;1103.43;454.57;;;10.20;99.90;;;;;;5095236;28;20418;-87
2023/08/31 03:27:29;;;;;;;1105.43;456.37;;;10.30;99.90;;;;;;5110779;28;20050;-86
2023/08/31 03:29:55;;;;;;;1130.57;518.97;;;10.50;99.90;;;;;;5102435;28;20400;-87
2023/08/31 03:32:21;;;;;;;1105.00;456.80;;;10.30;99.90;;;;;;5085571;28;20563;-87
2023/08/31 03:34:47;;;;;;;1134.00;524.27;;;10.30;99.90;;;;;;5113120;28;20135;-86
2023/08/31 03:37:13;;;;;;;1099.67;460.20;;;10.60;99.90;;;;;;5113211;28;20044;-87
2023/08/31 03:39:41;;;;;;;1110.73;471.73;;;11.00;99.90;;;;;;5093344;28;20039;-87
2023/08/31 03:42:06;;;;;;;1118.73;467.60;;;10.50;99.90;;;;;;5078460;28;20046;-87
2023/08/31 03:44:32;;;;;;;1150.57;522.83;;;10.50;99.90;;;;;;5078599;28;20509;-87
2023/08/31 03:46:58;;;;;;;1157.73;527.40;;;10.90;99.90;;;;;;5093752;28;20120;-86
2023/08/31 03:49:26;;;;;;;1132.13;470.57;;;10.60;99.90;;;;;;5075629;28;20495;-87
2023/08/31 03:51:53;;;;;;;1154.47;525.60;;;10.70;99.90;;;;;;5089097;28;20492;-86
2023/08/31 03:54:20;;;;;;;1128.83;469.53;;;11.00;99.90;;;;;;5077230;28;20039;-85
2023/08/31 03:56:46;;;;;;;1150.70;530.60;;;10.70;99.90;;;;;;5111270;28;20040;-86
2023/08/31 03:59:12;;;;;;;1117.50;474.40;;;10.60;99.90;;;;;;5094958;28;20032;-86
2023/08/31 04:01:38;;;;;;;1150.07;529.60;;;10.70;99.90;;;;;;5088584;28;20437;-86
2023/08/31 04:04:04;;;;;;;1146.27;526.93;;;10.70;99.90;;;;;;5095003;28;20082;-88
2023/08/31 04:06:30;;;;;;;1154.77;533.70;;;10.60;99.90;;;;;;5112566;28;20043;-87
2023/08/31 04:08:56;;;;;;;1132.07;482.03;;;10.70;99.90;;;;;;5112980;28;20050;-87
2023/08/31 04:11:22;;;;;;;1152.77;532.00;;;10.70;99.90;;;;;;5084670;28;20035;-88
2023/08/31 04:13:48;;;;;;;1152.40;527.13;;;10.70;99.90;;;;;;5095508;28;20043;-87
2023/08/31 04:16:14;;;;;;;1140.23;526.57;;;10.70;99.90;;;;;;5095948;28;20047;-86
2023/08/31 04:18:40;;;;;;;1137.53;526.70;;;10.60;99.90;;;;;;5117253;28;20035;-88
2023/08/31 04:21:06;;;;;;;1129.63;523.53;;;10.70;99.90;;;;;;5081792;28;20541;-86
2023/08/31 04:23:32;;;;;;;1100.30;456.63;;;10.70;99.90;;;;;;5096548;28;20153;-85
2023/08/31 04:25:59;;;;;;;1124.77;520.03;;;10.70;99.90;;;;;;5099579;28;20101;-87
2023/08/31 04:28:25;;;;;;;1107.20;461.27;;;10.80;99.90;;;;;;5098182;28;20051;-87
2023/08/31 04:30:51;;;;;;;1125.00;521.33;;;10.60;99.90;;;;;;5095203;28;20044;-86
2023/08/31 04:46:03;;;;;;;1111.50;516.97;;;10.80;99.90;;;;;;5092450;28;20450;-90
2023/08/31 04:48:29;;;;;;;1089.77;454.40;;;11.00;99.90;;;;;;5115513;28;20054;-88
2023/08/31 04:50:58;;;;;;;1094.17;459.03;;;10.80;99.90;;;;;;5095991;28;20126;-88
2023/08/31 04:53:28;;;;;;;1094.57;461.70;;;10.80;99.90;;;;;;5092110;28;20039;-88
2023/08/31 04:55:53;;;;;;;1116.17;523.07;;;10.80;99.90;;;;;;5082662;28;20051;-88
2023/08/31 04:58:19;;;;;;;1111.67;522.33;;;10.80;99.90;;;;;;5099868;28;20118;-88
2023/08/31 05:00:47;;;;;;;1090.97;460.97;;;10.70;99.90;;;;;;5099213;28;20132;-89
2023/08/31 05:03:13;;;;;;;1122.77;517.20;;;10.70;99.90;;;;;;5115330;28;20047;-90
2023/08/31 05:05:39;;;;;;;1108.70;465.60;;;10.70;99.90;;;;;;5090733;28;20047;-90
2023/08/31 05:08:05;;;;;;;1126.00;523.60;;;10.70;99.90;;;;;;5096819;28;20051;-88
2023/08/31 05:10:31;;;;;;;1102.23;464.17;;;10.70;99.90;;;;;;5097598;28;20039;-88
2023/08/31 05:12:57;;;;;;;1127.07;520.70;;;10.70;99.90;;;;;;5113583;28;20050;-88
2023/08/31 05:15:23;;;;;;;1117.03;462.57;;;10.70;99.90;;;;;;5097401;28;20043;-88
2023/08/31 05:17:48;;;;;;;1209.43;529.50;;;11.10;99.90;;;;;;5095561;28;20050;-88
2023/08/31 05:20:14;;;;;;;1215.63;532.03;;;10.70;99.90;;;;;;5095762;28;20049;-87
2023/08/31 05:22:40;;;;;;;1188.00;489.43;;;10.70;99.90;;;;;;5093823;28;20388;-87
2023/08/31 05:25:06;;;;;;;1217.40;529.17;;;10.70;99.90;;;;;;5094793;28;20100;-88
2023/08/31 05:27:32;;;;;;;1189.60;486.57;;;10.70;99.90;;;;;;5092679;28;20044;-88
2023/08/31 05:29:58;;;;;;;1189.70;492.57;;;10.70;99.90;;;;;;5093719;28;20047;-87
2023/08/31 05:32:27;;;;;;;1222.50;532.80;;;10.80;99.90;;;;;;5078241;28;20051;-87
2023/08/31 05:34:56;;;;;;;1223.70;533.93;;;10.80;99.90;;;;;;5077052;28;20107;-87
2023/08/31 05:37:24;;;;;;;1188.93;491.70;;;10.70;99.90;;;;;;5114400;28;20500;-88
2023/08/31 05:39:52;;;;;;;1222.27;537.90;;;10.80;99.90;;;;;;5114758;28;20085;-87
2023/08/31 05:42:18;;;;;;;1216.13;533.97;;;10.80;99.90;;;;;;5093228;28;20039;-87
2023/08/31 05:44:44;;;;;;;1216.33;527.40;;;11.20;99.90;;;;;;5095808;28;20112;-87
2023/08/31 05:47:10;;;;;;;1218.90;537.13;;;11.10;99.90;;;;;;5112672;28;20043;-86
2023/08/31 05:49:38;;;;;;;1217.57;533.33;;;10.90;99.90;;;;;;5096137;28;20050;-87
2023/08/31 05:52:05;;;;;;;1183.70;486.30;;;11.00;99.90;;;;;;5095217;28;20119;-86
2023/08/31 05:54:31;;;;;;;1190.93;495.27;;;11.00;99.90;;;;;;5089893;28;20135;-87
2023/08/31 05:56:57;;;;;;;1184.93;492.80;;;11.00;99.90;;;;;;5083131;28;20132;-87
2023/08/31 05:59:22;;;;;;;1209.73;524.33;;;11.10;99.90;;;;;;5112306;28;20499;-87
2023/08/31 06:01:48;;;;;;;1180.10;483.93;;;11.20;99.90;;;;;;5072236;28;20385;-87
2023/08/31 06:04:14;;;;;;;1218.40;538.40;;;11.30;99.90;;;;;;5069096;28;20039;-87
2023/08/31 06:06:40;;;;;;;1217.77;536.40;;;11.30;99.90;;;;;;5112031;28;20097;-87
2023/08/31 06:09:07;;;;;;;1220.37;537.67;;;11.40;99.90;;;;;;5095919;28;20104;-87
2023/08/31 06:11:32;;;;;;;1230.50;541.53;;;11.40;99.90;;;;;;5083604;28;20048;-87
2023/08/31 06:13:58;;;;;;;1193.90;507.93;;;11.60;99.90;;;;;;5092375;28;20448;-88
2023/08/31 06:16:24;;;;;;;1231.93;532.70;;;12.00;99.90;;;;;;5105468;28;20400;-87
2023/08/31 06:18:51;;;;;;;1203.67;511.30;;;11.80;99.90;;;;;;5091983;28;20155;-87
2023/08/31 06:21:17;;;;;;;1247.73;546.03;;;11.90;99.90;;;;;;5096129;28;20044;-86
2023/08/31 06:23:43;;;;;;;1243.07;543.50;;;12.00;99.90;;;;;;5095005;28;20104;-87
2023/08/31 06:26:08;;;;;;;1211.73;511.57;;;12.10;99.90;;;;;;5085043;28;20044;-87
2023/08/31 06:28:34;;;;;;;1237.37;545.90;;;12.20;99.90;;;;;;5080207;28;20043;-88
2023/08/31 06:31:00;;;;;;;1235.80;538.53;;;12.30;99.90;;;;;;5085590;28;20074;-87
2023/08/31 06:33:26;;;;;;;1204.30;525.87;;;12.50;99.90;;;;;;5089199;28;20491;-87
2023/08/31 06:35:52;;;;;;;1246.43;547.83;;;12.50;99.90;;;;;;5114432;28;20047;-88
2023/08/31 06:38:18;;;;;;;1206.13;516.60;;;12.60;99.90;;;;;;5095506;28;20047;-87
2023/08/31 06:40:44;;;;;;;1253.07;548.57;;;12.60;99.90;;;;;;5077369;28;20043;-87
2023/08/31 06:43:10;;;;;;;1247.03;548.17;;;12.80;99.90;;;;;;5114135;28;20035;-88
2023/08/31 06:45:42;;;;;;;1247.10;551.83;;;12.80;99.90;;;;;;5092274;28;20113;-88
2023/08/31 06:48:08;;;;;;;1242.80;549.57;;;13.00;99.90;;;;;;5092116;28;20128;-83
2023/08/31 06:50:35;;;;;;;1248.50;552.30;;;13.10;99.90;;;;;;5092560;28;20459;-88
2023/08/31 06:53:01;;;;;;;1211.37;527.00;;;13.30;99.90;;;;;;5092265;28;20066;-85
2023/08/31 06:55:27;;;;;;;1249.13;548.37;;;13.50;99.90;;;;;;5094183;28;20048;-89
2023/08/31 06:57:52;;;;;;;1208.60;525.43;;;13.70;99.90;;;;;;5076198;28;20101;-87
2023/08/31 07:00:19;;;;;;;1212.57;528.37;;;13.70;99.90;;;;;;5092421;28;20035;-85
2023/08/31 07:02:45;;;;;;;1213.80;538.30;;;13.90;99.90;;;;;;5092008;28;20051;-86
2023/08/31 07:05:11;;;;;;;1213.73;532.93;;;13.90;99.90;;;;;;5092357;28;20044;-85
2023/08/31 07:07:37;;;;;;;1248.90;555.37;;;14.10;99.90;;;;;;5087084;28;20048;-85
2023/08/31 07:10:07;;;;;;;1191.67;533.93;;;14.20;99.90;;;;;;5091629;28;20036;-84
2023/08/31 07:12:32;;;;;;;1177.43;532.20;;;14.30;99.90;;;;;;5093791;28;20036;-84
2023/08/31 07:14:58;;;;;;;1196.63;547.07;;;14.40;99.90;;;;;;5094160;28;20357;-85
2023/08/31 07:17:24;;;;;;;1194.17;550.90;;;14.50;99.90;;;;;;5074325;28;20039;-85
2023/08/31 07:19:49;;;;;;;1165.40;530.60;;;14.70;99.90;;;;;;5074489;28;20130;-85
2023/08/31 07:22:15;;;;;;;1185.57;557.67;;;14.80;99.90;;;;;;5089625;28;20043;-84
2023/08/31 07:24:41;;;;;;;1175.43;554.63;;;15.00;99.90;;;;;;5071917;28;20048;-83
2023/08/31 07:27:07;;;;;;;1150.67;534.27;;;15.10;99.90;;;;;;5074384;28;20124;-85
2023/08/31 07:29:33;;;;;;;1193.70;559.90;;;15.20;99.90;;;;;;5090555;28;20131;-89
2023/08/31 07:31:58;;;;;;;1190.40;558.67;;;15.40;99.90;;;;;;5091390;28;20050;-83
2023/08/31 07:34:24;;;;;;;1150.07;540.87;;;15.50;99.90;;;;;;5075576;28;20048;-84
2023/08/31 07:36:50;;;;;;;1171.10;558.10;;;15.60;99.90;;;;;;5087626;28;20047;-86
2023/08/31 07:39:19;;;;;;;1194.57;564.30;;;15.80;99.90;;;;;;5090962;28;20035;-85
2023/08/31 07:41:44;;;;;;;1206.00;563.90;;;16.00;99.90;;;;;;5091314;28;20036;-85
2023/08/31 07:44:10;;;;;;;1202.20;564.40;;;16.10;99.90;;;;;;5077044;28;20035;-87
2023/08/31 07:46:44;;;;;;;1205.50;567.20;;;16.30;99.90;;;;;;5087127;28;20143;-89
2023/08/31 07:49:09;;;;;;;1167.63;560.80;;;16.50;99.90;;;;;;5094500;28;20044;-84
2023/08/31 07:51:38;;;;;;;1203.77;568.07;;;16.60;99.90;;;;;;5079470;28;20058;-86
2023/08/31 07:54:04;;;;;;;1190.80;570.47;;;16.80;99.90;;;;;;5093430;28;20039;-86
2023/08/31 07:56:32;;;;;;;1230.17;577.30;;;17.00;99.90;;;;;;5080907;28;20111;-86
2023/08/31 07:58:58;;;;;;;1195.40;584.20;;;17.20;99.90;;;;;;5098586;28;20035;-85
2023/08/31 08:01:24;;;;;;;1193.57;588.57;;;17.40;99.90;;;;;;5081583;28;20043;-87
2023/08/31 08:03:52;;;;;;;1190.83;591.77;;;17.50;99.90;;;;;;5091915;28;20372;-86
2023/08/31 08:06:18;;;;;;;1222.23;577.83;;;17.50;99.90;;;;;;5098912;28;20047;-85
2023/08/31 08:08:44;;;;;;;1225.13;573.17;;;17.50;99.90;;;;;;5112685;28;20044;-83
2023/08/31 08:11:10;;;;;;;1254.97;582.23;;;17.40;99.90;;;;;;5081584;28;20127;-85
2023/08/31 08:13:35;;;;;;;1212.73;597.33;;;17.30;99.90;;;;;;5097304;28;20122;-85
2023/08/31 08:16:02;;;;;;;1213.77;606.73;;;17.30;99.90;;;;;;5070988;28;20487;-87
2023/08/31 08:18:28;;;;;;;1252.60;583.07;;;17.40;99.90;;;;;;5090487;28;20036;-85
2023/08/31 08:20:53;;;;;;;1246.47;569.87;;;17.50;99.90;;;;;;5092439;28;20475;-87
2023/08/31 08:23:21;;;;;;;1215.37;610.27;;;17.70;99.90;;;;;;5088353;28;20040;-87
2023/08/31 08:25:50;;;;;;;1208.40;621.17;;;17.80;99.90;;;;;;5097337;28;20075;-86
2023/08/31 08:28:15;;;;;;;1207.63;615.20;;;18.00;99.90;;;;;;5087251;28;20127;-86
2023/08/31 08:30:41;;;;;;;1248.90;580.33;;;18.20;99.90;;;;;;5116888;28;20104;-83
2023/08/31 08:33:08;;;;;;;1245.60;579.10;;;18.40;99.90;;;;;;5094823;28;20100;-84
2023/08/31 08:35:34;;;;;;;1214.17;624.70;;;18.50;99.90;;;;;;5095509;28;20050;-84
2023/08/31 08:38:00;;;;;;;1204.77;612.97;;;18.50;99.90;;;;;;5081112;28;20118;-85
2023/08/31 08:40:25;;;;;;;1214.20;633.87;;;18.40;99.90;;;;;;5098162;28;20052;-86
2023/08/31 08:42:54;;;;;;;1246.30;581.50;;;18.40;99.90;;;;;;5098308;28;20131;-85
2023/08/31 08:45:24;;;;;;;1238.43;571.73;;;18.40;99.90;;;;;;5098123;28;20035;-86
2023/08/31 08:47:51;;;;;;;1240.40;581.30;;;18.60;99.90;;;;;;5097468;28;20055;-86
2023/08/31 08:50:17;;;;;;;1206.07;630.97;;;18.80;99.90;;;;;;5081470;28;20079;-87
2023/08/31 08:52:44;;;;;;;1246.23;586.70;;;18.90;99.90;;;;;;5081256;28;20047;-86
2023/08/31 08:55:09;;;;;;;1207.47;633.27;;;19.10;99.90;;;;;;5097234;28;20079;-86
2023/08/31 08:57:35;;;;;;;1212.20;643.00;;;19.20;99.90;;;;;;5108073;28;20086;-85
2023/08/31 09:00:02;;;;;;;1205.17;644.00;;;19.30;99.90;;;;;;5097743;28;20514;-85
2023/08/31 09:02:28;;;;;;;1232.97;585.20;;;19.40;99.90;;;;;;5096807;28;20044;-86
2023/08/31 09:04:54;;;;;;;1241.93;594.03;;;19.50;99.90;;;;;;5096765;28;20047;-86
2023/08/31 09:07:21;;;;;;;1215.57;644.47;;;19.70;99.90;;;;;;5098289;28;20028;-85
2023/08/31 09:09:52;;;;;;;1245.53;587.63;;;19.80;99.90;;;;;;5116664;28;20043;-85
2023/08/31 09:12:18;;;;;;;1208.47;654.40;;;19.90;99.90;;;;;;5116548;28;20039;-85
2023/08/31 09:14:57;;;;;;;1230.90;656.20;;;19.90;99.90;;;;;;5098273;28;20515;-87
2023/08/31 09:17:25;;;;;;;1273.00;606.97;;;20.00;99.90;;;;;;5115868;28;20081;-85
2023/08/31 09:23:38;;;;;;;1280.77;601.23;;;20.20;99.90;;;;;;5095490;28;20050;-84
2023/08/31 09:26:04;;;;;;;1239.67;678.17;;;20.20;99.90;;;;;;5077210;28;20080;-86
2023/08/31 09:28:30;;;;;;;1254.60;600.70;;;20.30;99.90;;;;;;5083762;28;20082;-85
2023/08/31 09:31:08;;;;;;;1227.63;667.10;;;20.20;99.90;;;;;;5097188;28;20085;-84
2023/08/31 09:33:37;;;;;;;1230.50;672.93;;;20.30;99.90;;;;;;5115892;28;20380;-84
2023/08/31 09:36:03;;;;;;;1275.77;609.37;;;20.40;99.90;;;;;;5115254;28;20044;-84
2023/08/31 09:38:30;;;;;;;1250.03;688.63;;;20.40;99.90;;;;;;5114606;28;20122;-85
2023/08/31 09:41:08;;;;;;;1250.83;696.83;;;20.70;99.90;;;;;;5112755;28;20071;-85
2023/08/31 09:43:34;;;;;;;1290.17;609.33;;;20.80;99.90;;;;;;5115444;28;20054;-86
2023/08/31 09:46:02;;;;;;;1296.93;615.50;;;20.70;99.90;;;;;;5106265;28;20051;-87
2023/08/31 09:48:29;;;;;;;1251.77;691.47;;;20.40;99.90;;;;;;5096772;28;20105;-85
2023/08/31 09:50:56;;;;;;;1291.40;604.87;;;20.00;99.90;;;;;;5096152;28;20384;-88
2023/08/31 09:53:24;;;;;;;1286.17;600.53;;;19.60;99.90;;;;;;5109793;28;20040;-88
2023/08/31 09:55:51;;;;;;;1288.37;604.83;;;19.30;99.90;;;;;;5096766;28;20044;-86
2023/08/31 09:58:20;;;;;;;1252.60;690.43;;;19.10;99.90;;;;;;5113453;28;20122;-87
2023/08/31 10:00:48;;;;;;;1254.17;678.17;;;18.90;99.90;;;;;;5097169;28;20088;-88
2023/08/31 10:03:15;;;;;;;1291.00;607.07;;;18.70;99.90;;;;;;5096857;28;20043;-87
2023/08/31 10:05:45;;;;;;;1288.00;601.00;;;18.60;99.90;;;;;;5105403;28;20048;-83
2023/08/31 10:08:15;;;;;;;1213.30;668.40;;;18.50;99.90;;;;;;5076859;28;20140;-84
2023/08/31 10:10:41;;;;;;;1200.07;664.20;;;18.60;99.90;;;;;;5112834;28;20051;-83
2023/08/31 10:13:07;;;;;;;1259.20;600.77;;;18.80;99.90;;;;;;5079699;28;20395;-83
2023/08/31 10:15:37;;;;;;;1264.17;595.00;;;19.00;99.90;;;;;;5111275;28;20039;-82
2023/08/31 10:18:07;;;;;;;1247.20;600.03;;;19.20;99.90;;;;;;5106735;28;20032;-84
2023/08/31 10:20:34;;;;;;;1231.17;663.80;;;19.50;99.90;;;;;;5089260;28;20044;-88
2023/08/31 10:23:04;;;;;;;1206.57;657.33;;;19.50;99.90;;;;;;5096992;28;20078;-85
2023/08/31 10:25:48;;;;;;;1237.53;597.47;;;19.80;99.90;;;;;;5110757;28;20070;-84
2023/08/31 10:28:22;;;;;;;1225.23;671.50;;;20.10;99.90;;;;;;5069413;28;20082;-86
2023/08/31 10:31:08;;;;;;;1228.53;670.07;;;20.30;99.90;;;;;;5096529;28;20498;-84
2023/08/31 10:33:44;;;;;;;1282.65;600.70;;;20.50;99.90;;;;;;5096353;28;20059;-87
2023/08/31 10:36:15;;;;;;;1285.50;605.93;;;20.40;99.90;;;;;;5093821;28;20043;-85
2023/08/31 10:38:44;;;;;;;1239.97;683.37;;;20.00;99.90;;;;;;5114386;28;20054;-84
2023/08/31 10:41:10;;;;;;;1243.93;681.63;;;19.60;99.90;;;;;;5114154;28;20507;-85
2023/08/31 10:43:58;;;;;;;1238.17;673.67;;;19.30;99.90;;;;;;5093523;28;20055;-85
2023/08/31 10:46:32;;;;;;;1272.67;605.50;;;19.00;99.90;;;;;;5086924;28;20510;-84
2023/08/31 10:49:10;;;;;;;1247.30;671.23;;;18.80;99.90;;;;;;5114051;28;20056;-85
2023/08/31 10:51:47;;;;;;;1247.63;663.33;;;18.70;99.90;;;;;;5111117;28;20044;-89
2023/08/31 10:54:22;;;;;;;1260.33;594.60;;;18.60;99.90;;;;;;5104909;28;20423;-83
2023/08/31 10:57:08;;;;;;;1267.67;595.03;;;18.60;99.90;;;;;;5095722;28;20051;-84
2023/08/31 10:59:46;;;;;;;1243.30;593.63;;;19.00;99.90;;;;;;5095889;28;20294;-86
2023/08/31 11:02:31;;;;;;;1222.93;654.33;;;19.20;99.90;;;;;;5096169;28;20052;-86
2023/08/31 11:05:14;;;;;;;1264.10;595.15;;;19.30;99.90;;;;;;5078898;28;20479;-85
2023/08/31 11:07:43;;;;;;;1264.13;601.70;;;19.50;99.90;;;;;;5095363;28;20051;-87
2023/08/31 11:10:26;;;;;;;1243.00;673.60;;;19.70;99.90;;;;;;5096001;28;20153;-88
2023/08/31 11:12:54;;;;;;;1235.10;666.67;;;19.90;99.90;;;;;;5096004;28;20042;-86
2023/08/31 11:15:21;;;;;;;1221.73;664.83;;;20.10;99.90;;;;;;5095360;28;20056;-86
2023/08/31 11:17:50;;;;;;;1285.07;604.17;;;20.30;99.90;;;;;;5095356;28;20040;-86
2023/08/31 11:20:18;;;;;;;1263.03;603.93;;;20.50;99.90;;;;;;5078749;28;20106;-86
2023/08/31 11:22:46;;;;;;;1228.50;672.50;;;20.80;99.90;;;;;;5113726;28;20546;-86
2023/08/31 11:25:13;;;;;;;1281.63;616.63;;;21.00;99.90;;;;;;5073719;28;20062;-87
2023/08/31 11:27:39;;;;;;;1257.67;684.50;;;20.90;99.90;;;;;;5077921;28;20110;-87
2023/08/31 11:30:15;;;;;;;1228.90;685.10;;;20.70;99.90;;;;;;5091723;28;20052;-83
2023/08/31 11:32:49;;;;;;;1244.80;666.27;;;20.20;99.90;;;;;;5113526;28;20036;-82
2023/08/31 11:35:18;;;;;;;1265.93;599.50;;;19.50;99.90;;;;;;5095128;28;20047;-83
2023/08/31 11:37:45;;;;;;;1248.90;597.50;;;19.30;99.90;;;;;;5113531;28;20048;-81
2023/08/31 11:40:14;;;;;;;1199.70;658.00;;;18.70;99.90;;;;;;5095434;28;20052;-82
2023/08/31 11:42:40;;;;;;;1204.37;654.83;;;18.40;99.90;;;;;;5095484;28;20047;-82
2023/08/31 11:45:07;;;;;;;1202.63;640.50;;;18.10;99.90;;;;;;5112838;28;20047;-82
2023/08/31 11:47:33;;;;;;;1207.03;640.47;;;17.90;99.90;;;;;;5094845;28;20056;-86
2023/08/31 11:50:03;;;;;;;1236.33;594.73;;;17.40;99.90;;;;;;5096112;28;20449;-86
2023/08/31 11:52:31;;;;;;;1255.00;587.50;;;16.90;99.90;;;;;;5078762;28;20361;-86
2023/08/31 11:54:57;;;;;;;1204.10;613.90;;;16.60;99.90;;;;;;5113784;28;20044;-87
2023/08/31 11:57:28;;;;;;;1190.30;613.47;;;16.80;99.90;;;;;;5095451;28;20506;-90
2023/08/31 11:59:55;;;;;;;1251.70;578.93;;;16.30;99.90;;;;;;5115059;28;20395;-88
2023/08/31 12:02:21;;;;;;;1223.33;620.47;;;16.20;99.90;;;;;;5114794;28;20040;-88
2023/08/31 12:04:47;;;;;;;1259.60;577.43;;;16.20;99.90;;;;;;5080034;28;20058;-90
2023/08/31 12:07:18;;;;;;;1220.40;616.17;;;16.40;99.90;;;;;;5096348;28;20047;-85
2023/08/31 12:09:45;;;;;;;1231.73;616.03;;;16.80;99.90;;;;;;5114202;28;20510;-88
2023/08/31 12:12:13;;;;;;;1284.27;584.20;;;17.10;99.90;;;;;;5096397;28;20044;-90
2023/08/31 12:14:41;;;;;;;1282.73;580.37;;;17.30;99.90;;;;;;5098003;28;20510;-89
2023/08/31 12:17:08;;;;;;;1238.87;623.63;;;17.20;99.90;;;;;;5096469;28;20146;-86
2023/08/31 12:23:22;;;;;;;1288.00;578.77;;;17.10;99.90;;;;;;5116623;28;20034;-89
2023/08/31 12:25:48;;;;;;;1283.80;582.07;;;16.90;99.90;;;;;;5096284;28;20130;-85